TAF Text Data
IDs:
Format:
Raw Decoded Include METAR

Data at: 0738 UTC 21 Oct 2018

KCNM 210653Z AUTO 13004KT 10SM CLR 13/12 A3037 RMK AO2 RAB04E25 SLP248 P0000 T01280117 402000128

KCNM 210520Z 2106/2206 25006KT P6SM BKN090
  TEMPO 2106/2110 -SHRA
  FM211200 11007KT P6SM OVC090
  FM220000 18006KT P6SM SCT170